.
WxDataArchive / Data Records for 2009-11-26
2009-11-25 November 2009 2009-11-27

Data Records for Thursday, 26 November 2009

Time	Temp	Chill	HIndex	Humid	Dewpt	 Wind 	HiWind	WindDir	Rain 	Barom 
-----	----	-----	------	-----	-----	------	------	-------	-----	----- 
00:00	42.1	42.1	42.1	91	39.7	1	4	248	0.00	29.819 
00:05	42.1	42.1	42.1	91	39.7	1	6	248	0.00	29.819 
00:10	42.1	42.1	42.1	91	39.7	1	5	248	0.00	29.819 
00:15	42.1	42.1	42.1	91	39.7	1	4	248	0.00	29.811 
00:20	41.9	41.9	41.9	91	39.5	1	4	248	0.00	29.811 
00:25	41.9	41.9	41.9	91	39.5	1	4	248	0.00	29.811 
00:30	41.9	41.9	41.9	91	39.5	1	3	248	0.00	29.812 
00:35	41.9	41.9	41.9	91	39.5	1	3	248	0.00	29.812 
00:40	42.1	42.1	42.1	91	39.7	1	6	248	0.00	29.812 
00:45	41.9	41.9	41.9	91	39.5	2	7	248	0.00	29.810 
00:50	41.9	41.9	41.9	91	39.5	3	7	248	0.00	29.810 
00:55	41.9	41.9	41.9	91	39.5	2	7	248	0.01	29.810 
01:00	41.6	41.6	41.6	91	39.2	3	9	248	0.00	29.811 
01:05	41.6	41.6	41.6	91	39.2	3	11	248	0.00	29.811 
01:10	41.3	38.8	41.3	91	38.9	4	10	270	0.00	29.811 
01:15	41.1	38.6	41.1	90	38.4	4	9	270	0.00	29.816 
01:20	40.8	37.4	40.8	89	37.8	5	11	270	0.00	29.816 
01:25	40.3	37.7	40.3	88	37.0	4	12	270	0.00	29.816 
01:30	40.1	37.4	40.1	87	36.5	4	14	248	0.00	29.826 
01:35	39.5	35.9	39.5	85	35.4	5	12	270	0.00	29.826 
01:40	38.9	35.2	38.9	84	34.5	5	13	248	0.00	29.826 
01:45	38.8	35.9	38.8	85	34.7	4	10	248	0.00	29.831 
01:50	38.6	35.7	38.6	85	34.5	4	10	248	0.00	29.831 
01:55	38.6	38.6	38.6	85	34.5	2	6	248	0.00	29.831 
02:00	38.5	38.5	38.5	86	34.7	2	6	248	0.00	29.831 
02:05	38.5	38.5	38.5	86	34.7	3	6	248	0.00	29.831 
02:10	38.5	38.5	38.5	86	34.7	2	7	270	0.00	29.831 
02:15	38.5	38.5	38.5	86	34.7	2	4	270	0.00	29.829 
02:20	38.5	38.5	38.5	85	34.4	3	10	248	0.00	29.829 
02:25	38.5	38.5	38.5	85	34.4	2	7	248	0.00	29.829 
02:30	38.3	38.3	38.3	84	33.9	3	9	248	0.00	29.828 
02:35	38.3	35.4	38.3	83	33.6	4	9	248	0.00	29.828 
02:40	38.3	38.3	38.3	83	33.6	2	5	248	0.00	29.828 
02:45	38.3	38.3	38.3	83	33.6	2	5	248	0.00	29.827 
02:50	38.3	38.3	38.3	83	33.6	3	12	248	0.00	29.827 
02:55	38.3	38.3	38.3	83	33.6	2	6	248	0.00	29.827 
03:00	38.3	38.3	38.3	83	33.6	2	6	248	0.00	29.823 
03:05	38.3	38.3	38.3	83	33.6	3	6	248	0.00	29.823 
03:10	38.3	38.3	38.3	84	33.9	3	11	225	0.00	29.823 
03:15	38.3	38.3	38.3	84	33.9	2	5	248	0.00	29.819 
03:20	38.2	38.2	38.2	84	33.8	2	6	248	0.00	29.819 
03:25	38.2	38.2	38.2	84	33.8	2	6	248	0.00	29.819 
03:30	38.2	38.2	38.2	85	34.1	2	7	248	0.00	29.814 
03:35	38.0	38.0	38.0	85	33.9	1	5	248	0.00	29.814 
03:40	37.9	37.9	37.9	85	33.8	2	6	248	0.00	29.814 
03:45	37.8	37.8	37.8	86	34.0	1	4	248	0.00	29.814 
03:50	37.6	37.6	37.6	86	33.8	1	4	248	0.00	29.814 
03:55	37.8	37.8	37.8	86	34.0	2	5	248	0.00	29.814 
04:00	37.8	37.8	37.8	87	34.3	1	3	248	0.00	29.811 
04:05	37.8	37.8	37.8	87	34.3	1	9	248	0.00	29.811 
04:10	37.8	37.8	37.8	87	34.3	2	5	248	0.00	29.811 
04:15	37.8	37.8	37.8	87	34.3	1	3	248	0.00	29.811 
04:20	37.8	37.8	37.8	87	34.3	1	4	248	0.00	29.811 
04:25	37.8	37.8	37.8	87	34.3	1	6	225	0.00	29.811 
04:30	37.8	37.8	37.8	87	34.3	1	6	248	0.00	29.807 
04:35	37.8	37.8	37.8	87	34.3	1	4	248	0.00	29.807 
04:40	37.8	37.8	37.8	87	34.3	1	4	248	0.00	29.807 
04:45	37.8	37.8	37.8	87	34.3	1	3	22	0.00	29.807 
04:50	37.8	37.8	37.8	87	34.3	1	3	225	0.00	29.807 
04:55	37.9	37.9	37.9	87	34.4	1	7	248	0.00	29.807 
05:00	37.9	37.9	37.9	87	34.4	2	5	248	0.00	29.807 
05:05	37.9	37.9	37.9	87	34.4	2	6	248	0.00	29.807 
05:10	37.9	37.9	37.9	87	34.4	1	5	248	0.00	29.807 
05:15	37.9	37.9	37.9	87	34.4	1	5	248	0.00	29.804 
05:20	37.9	37.9	37.9	87	34.4	3	7	248	0.00	29.804 
05:25	37.9	37.9	37.9	87	34.4	2	6	270	0.00	29.804 
05:30	37.9	37.9	37.9	87	34.4	2	5	248	0.00	29.801 
05:35	38.0	38.0	38.0	87	34.5	2	6	248	0.00	29.801 
05:40	38.0	38.0	38.0	87	34.5	2	6	248	0.00	29.801 
05:45	38.0	38.0	38.0	87	34.5	2	10	248	0.00	29.800 
05:50	38.0	38.0	38.0	87	34.5	1	4	248	0.00	29.800 
05:55	38.0	38.0	38.0	87	34.5	2	5	248	0.00	29.800 
06:00	38.2	38.2	38.2	86	34.4	2	6	248	0.00	29.801 
06:05	38.2	38.2	38.2	86	34.4	2	6	248	0.00	29.801 
06:10	38.2	38.2	38.2	86	34.4	1	2	225	0.00	29.801 
06:15	38.2	38.2	38.2	86	34.4	2	10	270	0.00	29.802 
06:20	38.3	38.3	38.3	86	34.5	2	4	248	0.00	29.802 
06:25	38.3	38.3	38.3	85	34.2	1	5	248	0.00	29.802 
06:30	38.2	38.2	38.2	85	34.1	2	7	248	0.00	29.802 
06:35	38.3	38.3	38.3	85	34.2	2	7	248	0.00	29.802 
06:40	38.3	38.3	38.3	84	33.9	2	7	248	0.00	29.802 
06:45	38.3	38.3	38.3	84	33.9	2	5	248	0.00	29.802 
06:50	38.3	38.3	38.3	84	33.9	2	5	248	0.00	29.802 
06:55	38.3	38.3	38.3	84	33.9	1	4	248	0.00	29.802 
07:00	38.3	38.3	38.3	84	33.9	2	5	248	0.00	29.807 
07:05	38.3	38.3	38.3	83	33.6	3	6	248	0.00	29.807 
07:10	38.3	38.3	38.3	83	33.6	2	6	248	0.00	29.807 
07:15	38.3	38.3	38.3	83	33.6	1	6	248	0.00	29.809 
07:20	38.3	38.3	38.3	83	33.6	1	5	248	0.00	29.809 
07:25	38.3	38.3	38.3	83	33.6	2	6	248	0.00	29.809 
07:30	38.3	38.3	38.3	83	33.6	1	4	248	0.00	29.807 
07:35	38.3	38.3	38.3	83	33.6	2	6	248	0.00	29.807 
07:40	38.3	38.3	38.3	83	33.6	2	6	225	0.00	29.807 
07:45	38.3	38.3	38.3	83	33.6	2	5	248	0.00	29.806 
07:50	38.2	38.2	38.2	83	33.5	2	8	248	0.00	29.806 
07:55	38.2	38.2	38.2	83	33.5	2	7	248	0.00	29.806 
08:00	38.3	38.3	38.3	83	33.6	1	5	248	0.00	29.809 
08:05	38.3	38.3	38.3	83	33.6	1	4	248	0.00	29.809 
08:10	38.3	38.3	38.3	84	33.9	0	3	248	0.00	29.809 
08:15	38.3	38.3	38.3	84	33.9	2	6	248	0.00	29.809 
08:20	38.3	38.3	38.3	84	33.9	2	5	270	0.00	29.809 
08:25	38.3	38.3	38.3	84	33.9	2	5	248	0.00	29.809 
08:30	38.3	38.3	38.3	84	33.9	1	4	248	0.00	29.808 
08:35	38.3	38.3	38.3	83	33.6	2	5	248	0.00	29.808 
08:40	38.3	38.3	38.3	83	33.6	2	7	248	0.00	29.808 
08:45	38.3	38.3	38.3	83	33.6	2	6	248	0.00	29.804 
08:50	38.3	38.3	38.3	83	33.6	2	5	225	0.00	29.804 
08:55	38.3	35.4	38.3	83	33.6	4	12	248	0.00	29.804 
09:00	38.3	35.4	38.3	82	33.3	4	12	270	0.00	29.805 
09:05	38.3	38.3	38.3	82	33.3	3	9	248	0.00	29.805 
09:10	38.2	35.2	38.2	83	33.5	4	11	270	0.00	29.805 
09:15	38.2	38.2	38.2	83	33.5	3	7	225	0.00	29.814 
09:20	38.2	35.2	38.2	84	33.8	4	10	248	0.00	29.814 
09:25	38.0	38.0	38.0	84	33.6	2	5	248	0.00	29.814 
09:30	38.0	38.0	38.0	84	33.6	2	6	248	0.00	29.814 
09:35	38.0	38.0	38.0	84	33.6	3	9	248	0.00	29.814 
09:40	38.0	38.0	38.0	84	33.6	2	6	248	0.00	29.814 
09:45	38.2	38.2	38.2	84	33.8	2	6	225	0.00	29.808 
09:50	38.2	38.2	38.2	83	33.5	2	5	248	0.00	29.808 
09:55	38.3	38.3	38.3	83	33.6	1	4	248	0.00	29.808 
10:00	38.3	38.3	38.3	83	33.6	3	6	248	0.00	29.807 
10:05	38.3	38.3	38.3	83	33.6	3	9	248	0.00	29.807 
10:10	38.3	38.3	38.3	83	33.6	2	10	248	0.00	29.807 
10:15	38.5	38.5	38.5	84	34.1	1	7	248	0.00	29.808 
10:20	38.6	38.6	38.6	84	34.2	1	5	248	0.00	29.808 
10:25	38.5	38.5	38.5	85	34.4	1	4	248	0.00	29.808 
10:30	38.5	38.5	38.5	86	34.7	1	4	248	0.00	29.809 
10:35	38.5	38.5	38.5	86	34.7	2	6	248	0.00	29.809 
10:40	38.3	38.3	38.3	86	34.5	2	5	248	0.00	29.809 
10:45	38.3	38.3	38.3	86	34.5	2	7	248	0.00	29.806 
10:50	38.3	38.3	38.3	86	34.5	2	9	248	0.00	29.806 
10:55	38.0	38.0	38.0	86	34.2	3	10	248	0.01	29.806 
11:00	37.9	37.9	37.9	87	34.4	3	7	270	0.00	29.807 
11:05	37.8	37.8	37.8	88	34.6	2	7	248	0.00	29.807 
11:10	37.8	37.8	37.8	88	34.6	2	6	248	0.01	29.807 
11:15	37.6	37.6	37.6	89	34.7	1	5	248	0.00	29.805 
11:20	37.5	37.5	37.5	89	34.6	2	7	248	0.00	29.805 
11:25	37.5	37.5	37.5	90	34.8	1	3	248	0.01	29.805 
11:30	37.6	37.6	37.6	90	34.9	1	8	112	0.00	29.803 
11:35	37.6	37.6	37.6	90	34.9	1	5	248	0.00	29.803 
11:40	37.8	37.8	37.8	91	35.4	2	6	248	0.00	29.803 
11:45	37.8	37.8	37.8	91	35.4	2	5	248	0.00	29.798 
11:50	38.0	38.0	38.0	91	35.6	1	6	248	0.00	29.798 
11:55	37.9	37.9	37.9	91	35.5	2	5	270	0.00	29.798 
12:00	37.9	37.9	37.9	91	35.5	2	7	248	0.00	29.791 
12:05	38.0	38.0	38.0	91	35.6	1	5	248	0.00	29.791 
12:10	38.2	38.2	38.2	91	35.8	1	4	248	0.00	29.791 
12:15	38.2	38.2	38.2	91	35.8	1	6	270	0.00	29.787 
12:20	38.2	38.2	38.2	91	35.8	1	5	225	0.01	29.787 
12:25	38.0	38.0	38.0	91	35.6	2	7	248	0.00	29.787 
12:30	37.9	37.9	37.9	91	35.5	2	8	225	0.00	29.786 
12:35	38.0	38.0	38.0	91	35.6	1	4	248	0.00	29.786 
12:40	37.9	37.9	37.9	91	35.5	2	5	270	0.00	29.786 
12:45	37.8	37.8	37.8	91	35.4	2	6	248	0.00	29.782 
12:50	37.6	37.6	37.6	91	35.2	1	4	248	0.00	29.782 
12:55	37.6	37.6	37.6	91	35.2	2	6	248	0.00	29.782 
13:00	37.6	37.6	37.6	91	35.2	1	5	225	0.00	29.777 
13:05	37.6	37.6	37.6	92	35.5	0	3	292	0.01	29.777 
13:10	37.5	37.5	37.5	92	35.4	1	4	248	0.00	29.777 
13:15	37.6	37.6	37.6	92	35.5	1	4	248	0.00	29.777 
13:20	37.6	37.6	37.6	92	35.5	2	5	270	0.00	29.777 
13:25	37.6	37.6	37.6	92	35.5	1	6	248	0.00	29.777 
13:30	37.8	37.8	37.8	92	35.7	2	5	248	0.00	29.775 
13:35	37.6	37.6	37.6	92	35.5	3	7	248	0.00	29.775 
13:40	37.6	37.6	37.6	91	35.2	3	7	248	0.00	29.775 
13:45	37.8	37.8	37.8	91	35.4	2	5	248	0.00	29.774 
13:50	37.9	37.9	37.9	91	35.5	2	4	248	0.00	29.774 
13:55	37.9	37.9	37.9	91	35.5	2	11	248	0.00	29.774 
14:00	37.9	37.9	37.9	91	35.5	2	5	248	0.00	29.772 
14:05	38.0	38.0	38.0	91	35.6	1	3	270	0.00	29.772 
14:10	38.0	38.0	38.0	91	35.6	2	9	248	0.00	29.772 
14:15	37.9	37.9	37.9	91	35.5	2	5	270	0.00	29.770 
14:20	37.9	37.9	37.9	91	35.5	2	5	248	0.00	29.770 
14:25	37.9	37.9	37.9	91	35.5	2	5	248	0.00	29.770 
14:30	37.9	37.9	37.9	91	35.5	2	5	248	0.00	29.771 
14:35	37.9	37.9	37.9	91	35.5	1	3	270	0.00	29.771 
14:40	37.9	37.9	37.9	91	35.5	2	7	270	0.00	29.771 
14:45	37.9	37.9	37.9	92	35.8	2	4	248	0.00	29.770 
14:50	38.0	38.0	38.0	92	35.9	1	5	248	0.00	29.770 
14:55	38.2	38.2	38.2	92	36.1	1	4	248	0.00	29.770 
15:00	38.3	38.3	38.3	92	36.2	1	5	248	0.00	29.772 
15:05	38.2	38.2	38.2	92	36.1	2	5	292	0.00	29.772 
15:10	38.2	38.2	38.2	92	36.1	2	6	248	0.00	29.772 
15:15	38.2	38.2	38.2	92	36.1	2	5	248	0.00	29.774 
15:20	38.2	38.2	38.2	92	36.1	1	7	248	0.00	29.774 
15:25	38.3	38.3	38.3	92	36.2	1	3	248	0.00	29.774 
15:30	38.3	38.3	38.3	92	36.2	1	3	248	0.00	29.774 
15:35	38.5	38.5	38.5	92	36.4	1	3	248	0.00	29.774 
15:40	38.5	38.5	38.5	92	36.4	1	3	248	0.00	29.774 
15:45	38.6	38.6	38.6	92	36.5	0	2	248	0.00	29.776 
15:50	38.8	38.8	38.8	92	36.7	0	2	248	0.00	29.776 
15:55	38.8	38.8	38.8	92	36.7	1	3	248	0.00	29.776 
16:00	38.9	38.9	38.9	93	37.1	0	2	248	0.00	29.786 
16:05	39.1	39.1	39.1	92	37.0	0	4	248	0.00	29.786 
16:10	39.1	39.1	39.1	92	37.0	1	5	270	0.00	29.786 
16:15	38.9	38.9	38.9	92	36.8	1	4	292	0.00	29.790 
16:20	39.1	39.1	39.1	92	37.0	1	3	338	0.00	29.790 
16:25	39.2	39.2	39.2	91	36.8	0	3	338	0.00	29.790 
16:30	39.2	39.2	39.2	91	36.8	0	2	315	0.00	29.791 
16:35	39.3	39.3	39.3	91	36.9	1	3	315	0.00	29.791 
16:40	39.3	39.3	39.3	90	36.6	1	3	315	0.00	29.791 
16:45	39.3	39.3	39.3	90	36.6	1	3	315	0.00	29.796 
16:50	39.2	39.2	39.2	89	36.2	0	2	315	0.00	29.796 
16:55	39.2	39.2	39.2	89	36.2	0	2	315	0.00	29.796 
17:00	39.1	39.1	39.1	88	35.9	0	2	315	0.00	29.805 
17:05	39.1	39.1	39.1	88	35.9	0	2	315	0.00	29.805 
17:10	39.2	39.2	39.2	88	35.9	0	2	315	0.00	29.805 
17:15	39.2	39.2	39.2	88	35.9	0	2	315	0.00	29.809 
17:20	39.3	39.3	39.3	88	36.0	1	3	292	0.00	29.809 
17:25	39.3	39.3	39.3	88	36.0	1	3	270	0.00	29.809 
17:30	39.3	39.3	39.3	87	35.8	1	3	270	0.00	29.820 
17:35	39.5	39.5	39.5	87	36.0	0	2	270	0.00	29.820 
17:40	39.5	39.5	39.5	87	36.0	1	4	270	0.00	29.820 
17:45	39.5	39.5	39.5	87	36.0	1	2	315	0.00	29.820 
17:50	39.5	39.5	39.5	87	36.0	0	4	270	0.00	29.820 
17:55	39.5	39.5	39.5	87	36.0	0	2	315	0.00	29.820 
18:00	39.5	39.5	39.5	88	36.2	1	2	315	0.00	29.823 
18:05	39.6	39.6	39.6	88	36.3	1	2	315	0.00	29.823 
18:10	39.6	39.6	39.6	88	36.3	1	3	292	0.00	29.823 
18:15	39.6	39.6	39.6	88	36.3	1	3	292	0.00	29.830 
18:20	39.6	39.6	39.6	89	36.6	1	3	292	0.00	29.830 
18:25	39.8	39.8	39.8	89	36.8	1	2	292	0.00	29.830 
18:30	39.8	39.8	39.8	89	36.8	1	4	292	0.00	29.835 
18:35	39.9	39.9	39.9	90	37.2	2	4	248	0.00	29.835 
18:40	39.9	39.9	39.9	90	37.2	1	2	248	0.00	29.835 
18:45	39.9	39.9	39.9	90	37.2	1	3	270	0.00	29.836 
18:50	39.9	39.9	39.9	91	37.5	1	3	270	0.00	29.836 
18:55	39.9	39.9	39.9	91	37.5	1	3	248	0.00	29.836 
19:00	39.9	39.9	39.9	92	37.8	2	4	248	0.00	29.837 
19:05	40.1	40.1	40.1	92	38.0	2	4	270	0.00	29.837 
19:10	40.1	40.1	40.1	92	38.0	2	4	270	0.00	29.837 
19:15	40.2	40.2	40.2	92	38.1	2	4	270	0.00	29.844 
19:20	40.2	40.2	40.2	92	38.1	2	5	270	0.00	29.844 
19:25	40.2	40.2	40.2	92	38.1	1	4	270	0.00	29.844 
19:30	40.3	40.3	40.3	91	37.9	2	4	270	0.00	29.850 
19:35	40.3	40.3	40.3	91	37.9	1	3	248	0.00	29.850 
19:40	40.3	40.3	40.3	91	37.9	2	5	270	0.00	29.850 
19:45	40.3	40.3	40.3	91	37.9	1	3	315	0.01	29.852 
19:50	40.3	40.3	40.3	91	37.9	2	4	248	0.00	29.852 
19:55	40.2	40.2	40.2	91	37.8	3	5	270	0.00	29.852 
20:00	40.1	40.1	40.1	91	37.7	2	5	338	0.00	29.854 
20:05	40.1	40.1	40.1	91	37.7	1	4	248	0.01	29.854 
20:10	39.9	39.9	39.9	91	37.5	1	4	248	0.00	29.854 
20:15	39.9	39.9	39.9	92	37.8	2	5	270	0.00	29.857 
20:20	39.9	39.9	39.9	92	37.8	2	3	270	0.00	29.857 
20:25	39.8	39.8	39.8	92	37.7	2	5	270	0.00	29.857 
20:30	39.6	39.6	39.6	92	37.5	2	5	315	0.00	29.861 
20:35	39.6	39.6	39.6	92	37.5	2	5	270	0.01	29.861 
20:40	39.6	39.6	39.6	92	37.5	2	6	270	0.00	29.861 
20:45	39.6	39.6	39.6	92	37.5	2	7	270	0.00	29.863 
20:50	39.6	39.6	39.6	92	37.5	2	4	292	0.00	29.863 
20:55	39.5	39.5	39.5	92	37.4	2	5	248	0.00	29.863 
21:00	39.5	39.5	39.5	92	37.4	2	3	270	0.00	29.865 
21:05	39.3	39.3	39.3	92	37.2	2	4	270	0.00	29.865 
21:10	39.3	39.3	39.3	92	37.2	3	5	270	0.00	29.865 
21:15	39.3	39.3	39.3	92	37.2	2	4	270	0.00	29.868 
21:20	39.2	39.2	39.2	92	37.1	2	6	270	0.00	29.868 
21:25	39.1	39.1	39.1	92	37.0	3	9	270	0.00	29.868 
21:30	38.9	38.9	38.9	91	36.5	3	6	270	0.00	29.869 
21:35	38.9	38.9	38.9	91	36.5	3	6	270	0.00	29.869 
21:40	38.9	38.9	38.9	91	36.5	3	6	270	0.00	29.869 
21:45	38.9	38.9	38.9	91	36.5	3	6	270	0.00	29.870 
21:50	38.9	38.9	38.9	91	36.5	3	6	270	0.00	29.870 
21:55	38.9	38.9	38.9	90	36.2	3	5	270	0.00	29.870 
22:00	38.9	38.9	38.9	90	36.2	3	6	270	0.00	29.873 
22:05	38.8	38.8	38.8	90	36.1	3	5	270	0.00	29.873 
22:10	38.8	38.8	38.8	89	35.8	3	5	270	0.00	29.873 
22:15	38.8	38.8	38.8	89	35.8	3	6	270	0.00	29.877 
22:20	38.6	38.6	38.6	88	35.4	3	6	270	0.00	29.877 
22:25	38.6	38.6	38.6	88	35.4	3	7	270	0.00	29.877 
22:30	38.8	35.9	38.8	87	35.3	4	7	270	0.00	29.876 
22:35	38.8	35.9	38.8	87	35.3	4	9	270	0.00	29.876 
22:40	38.6	38.6	38.6	86	34.8	3	6	270	0.00	29.876 
22:45	38.6	38.6	38.6	86	34.8	3	6	270	0.00	29.874 
22:50	38.6	35.7	38.6	86	34.8	4	9	270	0.00	29.874 
22:55	38.5	38.5	38.5	86	34.7	3	7	270	0.00	29.874 
23:00	38.5	38.5	38.5	86	34.7	3	7	270	0.00	29.872 
23:05	38.5	38.5	38.5	86	34.7	2	6	248	0.00	29.872 
23:10	38.3	38.3	38.3	87	34.8	2	10	270	0.00	29.872 
23:15	38.0	35.0	38.0	87	34.5	4	7	270	0.01	29.874 
23:20	37.8	34.8	37.8	87	34.3	4	7	270	0.00	29.874 
23:25	37.6	37.6	37.6	88	34.4	3	6	270	0.00	29.874 
23:30	37.3	37.3	37.3	88	34.1	3	6	270	0.00	29.879 
23:35	37.2	37.2	37.2	88	34.0	3	6	248	0.00	29.879 
23:40	37.2	37.2	37.2	89	34.3	3	6	270	0.00	29.879 
23:45	37.0	37.0	37.0	89	34.1	3	9	270	0.00	29.882 
23:50	36.9	33.7	36.9	88	33.7	4	11	292	0.00	29.882 
23:55	36.9	36.9	36.9	89	34.0	3	6	270	0.00	29.882 

CoCoRaHS
IN-AL-39
A2 Web Hosting
Creative Commons License
GoDaddy
search engine by freefind advanced

loaded 2018-11-22 05:23:56 • last modified 2010-11-18 10:43:29
Privacy PolicyDisclaimer
• wx.awcolley.com is powered by PmWiki v.2002016 •
• all content (unless otherwise noted) © 2018 A W Colley